Time,TemperatureF,DewpointF,PressureIn,WindDirection,WindDirectionDegrees,WindSpeedMPH,WindSpeedGustMPH,Humidity,HourlyPrecipIn,Conditions,Clouds,dailyrainin,SoftwareType,DateUTC
2013-05-15 00:14:00,66.5,55.0,30.17,SSW,205,2.0,7.0,66,0.00,,,0.00,weatherlink.com 1.10,2013-05-15 04:14:00,
2013-05-15 00:29:00,66.5,54.0,30.17,SSW,206,2.0,4.0,65,0.00,,,0.00,weatherlink.com 1.10,2013-05-15 04:29:00,
2013-05-15 00:44:00,66.3,55.0,30.17,SSW,205,2.0,6.0,66,0.00,,,0.00,weatherlink.com 1.10,2013-05-15 04:44:00,
2013-05-15 00:59:00,66.1,55.0,30.17,SSW,205,1.0,3.0,67,0.00,,,0.00,weatherlink.com 1.10,2013-05-15 04:59:00,
2013-05-15 01:14:00,65.9,55.0,30.16,SSW,197,2.0,5.0,69,0.00,,,0.00,weatherlink.com 1.10,2013-05-15 05:14:00,
2013-05-15 01:29:00,66.1,56.0,30.16,SW,215,3.0,5.0,69,0.00,,,0.00,weatherlink.com 1.10,2013-05-15 05:29:00,
2013-05-15 01:44:00,66.1,56.0,30.15,SW,214,1.0,5.0,70,0.00,,,0.00,weatherlink.com 1.10,2013-05-15 05:44:00,
2013-05-15 01:59:00,65.9,56.0,30.15,SSW,205,5.0,5.0,71,0.00,,,0.00,weatherlink.com 1.10,2013-05-15 05:59:00,
2013-05-15 02:14:00,66.1,56.0,30.14,SSW,200,2.0,7.0,71,0.00,,,0.00,weatherlink.com 1.10,2013-05-15 06:14:00,
2013-05-15 02:29:00,66.1,57.0,30.14,SSW,203,2.0,7.0,72,0.00,,,0.00,weatherlink.com 1.10,2013-05-15 06:29:00,
2013-05-15 02:44:00,66.2,57.0,30.14,SSW,194,4.0,8.0,71,0.00,,,0.00,weatherlink.com 1.10,2013-05-15 06:44:00,
2013-05-15 02:59:00,66.2,57.0,30.14,SSW,202,3.0,8.0,71,0.00,,,0.00,weatherlink.com 1.10,2013-05-15 06:59:00,
2013-05-15 03:14:00,66.1,57.0,30.14,SSW,208,4.0,7.0,73,0.00,,,0.00,weatherlink.com 1.10,2013-05-15 07:14:00,
2013-05-15 03:29:00,66.0,58.0,30.13,SW,218,5.0,7.0,74,0.00,,,0.00,weatherlink.com 1.10,2013-05-15 07:29:00,
2013-05-15 03:44:00,66.2,58.0,30.14,SSW,209,6.0,10.0,74,0.00,,,0.00,weatherlink.com 1.10,2013-05-15 07:44:00,
2013-05-15 03:59:00,66.2,58.0,30.14,SW,225,5.0,7.0,75,0.00,,,0.00,weatherlink.com 1.10,2013-05-15 07:59:00,
2013-05-15 04:14:00,66.2,58.0,30.14,SW,228,4.0,8.0,76,0.00,,,0.00,weatherlink.com 1.10,2013-05-15 08:14:00,
2013-05-15 04:29:00,66.3,59.0,30.15,SW,227,6.0,9.0,77,0.00,,,0.00,weatherlink.com 1.10,2013-05-15 08:29:00,
2013-05-15 04:44:00,66.0,59.0,30.15,WSW,238,2.0,8.0,78,0.00,,,0.00,weatherlink.com 1.10,2013-05-15 08:44:00,
2013-05-15 04:59:00,65.8,59.0,30.15,SW,231,7.0,7.0,79,0.00,,,0.00,weatherlink.com 1.10,2013-05-15 08:59:00,
2013-05-15 05:14:00,65.5,59.0,30.14,SW,231,5.0,6.0,80,0.00,,,0.00,weatherlink.com 1.10,2013-05-15 09:14:00,
2013-05-15 05:29:00,65.1,59.0,30.15,SW,231,2.0,4.0,81,0.00,,,0.00,weatherlink.com 1.10,2013-05-15 09:29:00,
2013-05-15 05:44:00,65.0,59.0,30.15,WSW,237,2.0,5.0,82,0.00,,,0.00,weatherlink.com 1.10,2013-05-15 09:44:00,
2013-05-15 05:59:00,64.9,59.0,30.16,SW,235,3.0,8.0,82,0.00,,,0.00,weatherlink.com 1.10,2013-05-15 09:59:00,
2013-05-15 06:14:00,65.2,59.0,30.16,WSW,239,6.0,9.0,80,0.00,,,0.00,weatherlink.com 1.10,2013-05-15 10:14:00,
2013-05-15 06:29:00,64.8,59.0,30.17,SW,233,8.0,8.0,82,0.00,,,0.00,weatherlink.com 1.10,2013-05-15 10:29:00,
2013-05-15 06:45:00,65.0,59.0,30.17,SW,235,7.0,9.0,82,0.00,,,0.00,weatherlink.com 1.10,2013-05-15 10:45:00,
2013-05-15 07:00:00,65.3,59.0,30.17,SW,233,6.0,12.0,81,0.00,,,0.00,weatherlink.com 1.10,2013-05-15 11:00:00,
2013-05-15 07:30:00,66.3,59.0,30.18,SW,224,9.0,16.0,77,0.00,,,0.00,weatherlink.com 1.10,2013-05-15 11:30:00,
2013-05-15 07:45:00,66.8,58.0,30.18,SW,234,13.0,16.0,74,0.00,,,0.00,weatherlink.com 1.10,2013-05-15 11:45:00,
2013-05-15 08:00:00,67.3,58.0,30.18,SW,234,7.0,14.0,72,0.00,,,0.00,weatherlink.com 1.10,2013-05-15 12:00:00,
2013-05-15 08:30:00,68.6,57.0,30.18,SW,234,10.0,16.0,66,0.00,,,0.00,weatherlink.com 1.10,2013-05-15 12:30:00,
2013-05-15 08:45:00,69.4,56.0,30.18,WSW,242,10.0,13.0,63,0.00,,,0.00,weatherlink.com 1.10,2013-05-15 12:45:00,
2013-05-15 09:00:00,70.4,56.0,30.18,WSW,244,11.0,15.0,61,0.00,,,0.00,weatherlink.com 1.10,2013-05-15 13:00:00,
2013-05-15 09:15:00,71.1,56.0,30.18,WSW,241,7.0,15.0,59,0.00,,,0.00,weatherlink.com 1.10,2013-05-15 13:15:00,
2013-05-15 09:30:00,71.9,55.0,30.18,WSW,238,8.0,18.0,56,0.00,,,0.00,weatherlink.com 1.10,2013-05-15 13:30:00,
2013-05-15 10:00:00,73.0,55.0,30.18,SW,233,14.0,20.0,53,0.00,,,0.00,weatherlink.com 1.10,2013-05-15 14:00:00,
2013-05-15 10:15:00,73.4,56.0,30.18,WSW,237,15.0,18.0,54,0.00,,,0.00,weatherlink.com 1.10,2013-05-15 14:15:00,
2013-05-15 10:30:00,74.1,54.0,30.18,WSW,246,14.0,18.0,50,0.00,,,0.00,weatherlink.com 1.10,2013-05-15 14:30:00,
2013-05-15 10:45:00,74.6,55.0,30.17,SW,226,16.0,18.0,50,0.00,,,0.00,weatherlink.com 1.10,2013-05-15 14:45:00,
2013-05-15 11:00:00,74.9,56.0,30.17,WSW,244,10.0,20.0,52,0.00,,,0.00,weatherlink.com 1.10,2013-05-15 15:00:00,
2013-05-15 11:45:00,76.5,57.0,30.15,WSW,242,14.0,18.0,51,0.00,,,0.00,weatherlink.com 1.10,2013-05-15 15:45:00,
2013-05-15 12:00:00,76.9,57.0,30.15,WSW,249,14.0,20.0,51,0.00,,,0.00,weatherlink.com 1.10,2013-05-15 16:00:00,
2013-05-15 12:15:00,77.2,59.0,30.14,South,189,9.0,19.0,53,0.00,,,0.00,weatherlink.com 1.10,2013-05-15 16:15:00,
2013-05-15 12:30:00,76.4,59.0,30.14,SSW,205,12.0,18.0,56,0.00,,,0.00,weatherlink.com 1.10,2013-05-15 16:30:00,
2013-05-15 12:45:00,77.0,61.0,30.13,SSW,213,13.0,17.0,59,0.00,,,0.00,weatherlink.com 1.10,2013-05-15 16:45:00,
2013-05-15 13:15:00,76.7,61.0,30.12,SSW,199,11.0,16.0,59,0.00,,,0.00,weatherlink.com 1.10,2013-05-15 17:15:00,
2013-05-15 13:30:00,76.6,61.0,30.12,SSW,201,8.0,19.0,59,0.00,,,0.00,weatherlink.com 1.10,2013-05-15 17:30:00,
2013-05-15 13:46:00,76.3,61.0,30.11,SW,222,17.0,18.0,59,0.00,,,0.00,weatherlink.com 1.10,2013-05-15 17:46:00,
2013-05-15 14:02:00,76.4,61.0,30.11,SSW,195,12.0,18.0,59,0.00,,,0.00,weatherlink.com 1.10,2013-05-15 18:02:00,
2013-05-15 14:16:00,76.5,61.0,30.10,SSW,209,14.0,20.0,59,0.00,,,0.00,weatherlink.com 1.10,2013-05-15 18:16:00,
2013-05-15 14:46:00,76.6,61.0,30.09,South,184,13.0,22.0,59,0.00,,,0.00,weatherlink.com 1.10,2013-05-15 18:46:00,
2013-05-15 15:01:00,76.6,61.0,30.08,SSW,207,10.0,19.0,58,0.00,,,0.00,weatherlink.com 1.10,2013-05-15 19:01:00,
2013-05-15 15:16:00,76.1,61.0,30.08,SSW,207,11.0,22.0,59,0.00,,,0.00,weatherlink.com 1.10,2013-05-15 19:16:00,
2013-05-15 15:31:00,76.1,61.0,30.07,SSW,197,18.0,26.0,59,0.00,,,0.00,weatherlink.com 1.10,2013-05-15 19:31:00,
2013-05-15 15:46:00,76.7,61.0,30.06,South,190,17.0,22.0,58,0.00,,,0.00,weatherlink.com 1.10,2013-05-15 19:46:00,
2013-05-15 16:01:00,76.7,61.0,30.06,SSW,203,13.0,25.0,59,0.00,,,0.00,weatherlink.com 1.10,2013-05-15 20:01:00,
2013-05-15 16:16:00,76.5,61.0,30.05,SSW,202,14.0,24.0,59,0.00,,,0.00,weatherlink.com 1.10,2013-05-15 20:16:00,
2013-05-15 16:31:00,76.6,61.0,30.05,SSW,212,12.0,21.0,59,0.00,,,0.00,weatherlink.com 1.10,2013-05-15 20:31:00,
2013-05-15 16:46:00,76.4,61.0,30.05,SW,219,13.0,22.0,60,0.00,,,0.00,weatherlink.com 1.10,2013-05-15 20:46:00,
2013-05-15 17:01:00,76.7,61.0,30.04,South,188,13.0,26.0,59,0.00,,,0.00,weatherlink.com 1.10,2013-05-15 21:01:00,
2013-05-15 17:31:00,76.7,61.0,30.04,SSW,194,11.0,23.0,59,0.00,,,0.00,weatherlink.com 1.10,2013-05-15 21:31:00,
2013-05-15 17:46:00,76.3,61.0,30.03,SSW,192,18.0,23.0,59,0.00,,,0.00,weatherlink.com 1.10,2013-05-15 21:46:00,
2013-05-15 18:01:00,75.9,61.0,30.04,SSW,196,17.0,20.0,61,0.00,,,0.00,weatherlink.com 1.10,2013-05-15 22:01:00,
2013-05-15 18:16:00,75.5,62.0,30.03,SSW,194,15.0,22.0,63,0.00,,,0.00,weatherlink.com 1.10,2013-05-15 22:16:00,
2013-05-15 18:31:00,75.3,61.0,30.03,SSW,204,17.0,24.0,62,0.00,,,0.00,weatherlink.com 1.10,2013-05-15 22:31:00,
2013-05-15 18:46:00,75.0,61.0,30.03,SSW,213,8.0,20.0,63,0.00,,,0.00,weatherlink.com 1.10,2013-05-15 22:46:00,
2013-05-15 19:01:00,74.5,61.0,30.03,SSW,211,18.0,23.0,63,0.00,,,0.00,weatherlink.com 1.10,2013-05-15 23:01:00,
2013-05-15 19:16:00,74.2,61.0,30.03,SW,220,15.0,22.0,64,0.00,,,0.00,weatherlink.com 1.10,2013-05-15 23:16:00,
2013-05-15 19:31:00,73.7,61.0,30.03,SW,234,13.0,20.0,65,0.00,,,0.00,weatherlink.com 1.10,2013-05-15 23:31:00,
2013-05-15 19:46:00,73.2,62.0,30.03,SSW,211,12.0,20.0,67,0.00,,,0.00,weatherlink.com 1.10,2013-05-15 23:46:00,
2013-05-15 20:01:00,72.7,62.0,30.03,SW,216,13.0,20.0,68,0.00,,,0.00,weatherlink.com 1.10,2013-05-16 00:01:00,
2013-05-15 20:16:00,72.2,62.0,30.03,SW,228,10.0,17.0,70,0.00,,,0.00,weatherlink.com 1.10,2013-05-16 00:16:00,
2013-05-15 20:46:00,71.7,61.0,30.03,SW,219,15.0,19.0,70,0.00,,,0.00,weatherlink.com 1.10,2013-05-16 00:46:00,
2013-05-15 21:16:00,71.5,62.0,30.04,SSW,206,13.0,20.0,71,0.00,,,0.00,weatherlink.com 1.10,2013-05-16 01:16:00,
2013-05-15 21:31:00,71.4,62.0,30.04,SW,221,19.0,19.0,72,0.00,,,0.00,weatherlink.com 1.10,2013-05-16 01:31:00,
2013-05-15 21:46:00,71.3,62.0,30.05,SW,222,10.0,18.0,73,0.00,,,0.00,weatherlink.com 1.10,2013-05-16 01:46:00,
2013-05-15 22:01:00,71.2,62.0,30.05,SSW,213,10.0,16.0,72,0.00,,,0.00,weatherlink.com 1.10,2013-05-16 02:01:00,
2013-05-15 22:31:00,71.2,62.0,30.05,SW,230,11.0,19.0,72,0.00,,,0.00,weatherlink.com 1.10,2013-05-16 02:31:00,
2013-05-15 22:46:00,71.1,62.0,30.05,SSW,213,11.0,17.0,72,0.00,,,0.00,weatherlink.com 1.10,2013-05-16 02:46:00,
2013-05-15 23:01:00,71.1,62.0,30.05,SW,216,14.0,17.0,72,0.00,,,0.00,weatherlink.com 1.10,2013-05-16 03:01:00,
2013-05-15 23:16:00,71.1,62.0,30.05,SW,216,14.0,19.0,73,0.00,,,0.00,weatherlink.com 1.10,2013-05-16 03:16:00,
2013-05-15 23:31:00,71.0,62.0,30.05,SW,223,9.0,16.0,74,0.00,,,0.00,weatherlink.com 1.10,2013-05-16 03:31:00,
2013-05-15 23:46:00,71.1,62.0,30.04,SW,236,13.0,20.0,73,0.00,,,0.00,weatherlink.com 1.10,2013-05-16 03:46:00,